sensor_id;sensor_type;location;lat;lon;timestamp;temperature;humidity
2973;DHT22;1496;51.404;7.232;2024-03-22T00:00:29;9.80;1.00
2973;DHT22;1496;51.404;7.232;2024-03-22T00:02:54;9.80;1.00
2973;DHT22;1496;51.404;7.232;2024-03-22T00:05:20;9.80;1.00
2973;DHT22;1496;51.404;7.232;2024-03-22T00:07:47;9.80;1.00
2973;DHT22;1496;51.404;7.232;2024-03-22T00:10:13;9.90;1.00
2973;DHT22;1496;51.404;7.232;2024-03-22T00:12:40;9.90;1.00
2973;DHT22;1496;51.404;7.232;2024-03-22T00:15:06;9.90;1.00
2973;DHT22;1496;51.404;7.232;2024-03-22T00:17:32;9.90;1.00
2973;DHT22;1496;51.404;7.232;2024-03-22T00:19:59;9.90;1.00
2973;DHT22;1496;51.404;7.232;2024-03-22T00:22:25;10.00;1.00
2973;DHT22;1496;51.404;7.232;2024-03-22T00:24:50;10.00;1.00
2973;DHT22;1496;51.404;7.232;2024-03-22T00:27:16;10.00;1.00
2973;DHT22;1496;51.404;7.232;2024-03-22T00:29:42;10.00;1.00
2973;DHT22;1496;51.404;7.232;2024-03-22T00:32:07;9.90;1.00
2973;DHT22;1496;51.404;7.232;2024-03-22T00:34:34;9.90;1.00
2973;DHT22;1496;51.404;7.232;2024-03-22T00:37:01;9.90;1.00
2973;DHT22;1496;51.404;7.232;2024-03-22T00:39:29;9.80;1.00
2973;DHT22;1496;51.404;7.232;2024-03-22T00:41:55;9.90;1.00
2973;DHT22;1496;51.404;7.232;2024-03-22T00:44:20;10.00;1.00
2973;DHT22;1496;51.404;7.232;2024-03-22T00:46:46;10.00;1.00
2973;DHT22;1496;51.404;7.232;2024-03-22T00:49:12;10.00;1.00
2973;DHT22;1496;51.404;7.232;2024-03-22T00:51:39;10.10;1.00
2973;DHT22;1496;51.404;7.232;2024-03-22T00:54:04;10.20;1.00
2973;DHT22;1496;51.404;7.232;2024-03-22T00:56:30;10.30;1.00
2973;DHT22;1496;51.404;7.232;2024-03-22T00:58:56;10.40;1.00
2973;DHT22;1496;51.404;7.232;2024-03-22T01:01:21;10.40;1.00
2973;DHT22;1496;51.404;7.232;2024-03-22T01:03:47;10.30;1.00
2973;DHT22;1496;51.404;7.232;2024-03-22T01:06:13;10.30;1.00
2973;DHT22;1496;51.404;7.232;2024-03-22T01:08:39;10.30;1.00
2973;DHT22;1496;51.404;7.232;2024-03-22T01:11:04;10.30;1.00
2973;DHT22;1496;51.404;7.232;2024-03-22T01:13:30;10.30;1.00
2973;DHT22;1496;51.404;7.232;2024-03-22T01:15:56;10.40;1.00
2973;DHT22;1496;51.404;7.232;2024-03-22T01:18:21;10.50;1.00
2973;DHT22;1496;51.404;7.232;2024-03-22T01:20:47;10.60;1.00
2973;DHT22;1496;51.404;7.232;2024-03-22T01:23:16;10.60;1.00
2973;DHT22;1496;51.404;7.232;2024-03-22T01:25:45;10.60;1.00
2973;DHT22;1496;51.404;7.232;2024-03-22T01:28:10;10.60;1.00
2973;DHT22;1496;51.404;7.232;2024-03-22T01:30:36;10.60;1.00
2973;DHT22;1496;51.404;7.232;2024-03-22T01:33:02;10.60;1.00
2973;DHT22;1496;51.404;7.232;2024-03-22T01:35:27;10.70;1.00
2973;DHT22;1496;51.404;7.232;2024-03-22T01:37:53;10.50;1.00
2973;DHT22;1496;51.404;7.232;2024-03-22T01:40:19;10.50;1.00
2973;DHT22;1496;51.404;7.232;2024-03-22T01:42:44;10.50;1.00
2973;DHT22;1496;51.404;7.232;2024-03-22T01:45:14;10.40;1.00
2973;DHT22;1496;51.404;7.232;2024-03-22T01:47:40;10.50;1.00
2973;DHT22;1496;51.404;7.232;2024-03-22T01:50:07;10.50;1.00
2973;DHT22;1496;51.404;7.232;2024-03-22T01:52:33;10.60;1.00
2973;DHT22;1496;51.404;7.232;2024-03-22T01:55:03;10.60;1.00
2973;DHT22;1496;51.404;7.232;2024-03-22T01:57:33;10.60;1.00
2973;DHT22;1496;51.404;7.232;2024-03-22T01:59:59;10.60;1.00
2973;DHT22;1496;51.404;7.232;2024-03-22T02:02:25;10.60;1.00
2973;DHT22;1496;51.404;7.232;2024-03-22T02:04:51;10.60;1.00
2973;DHT22;1496;51.404;7.232;2024-03-22T02:07:17;10.60;1.00
2973;DHT22;1496;51.404;7.232;2024-03-22T02:09:43;10.60;1.00
2973;DHT22;1496;51.404;7.232;2024-03-22T02:12:09;10.60;1.00
2973;DHT22;1496;51.404;7.232;2024-03-22T02:14:35;10.70;1.00
2973;DHT22;1496;51.404;7.232;2024-03-22T02:17:00;10.70;1.00
2973;DHT22;1496;51.404;7.232;2024-03-22T02:19:26;10.70;1.00
2973;DHT22;1496;51.404;7.232;2024-03-22T02:21:52;10.70;1.00
2973;DHT22;1496;51.404;7.232;2024-03-22T02:24:18;10.70;1.00
2973;DHT22;1496;51.404;7.232;2024-03-22T02:26:48;10.70;1.00
2973;DHT22;1496;51.404;7.232;2024-03-22T02:29:13;10.80;1.00
2973;DHT22;1496;51.404;7.232;2024-03-22T02:31:39;10.80;1.00
2973;DHT22;1496;51.404;7.232;2024-03-22T02:34:05;10.80;1.00
2973;DHT22;1496;51.404;7.232;2024-03-22T02:36:30;10.70;1.00
2973;DHT22;1496;51.404;7.232;2024-03-22T02:38:56;10.70;1.00
2973;DHT22;1496;51.404;7.232;2024-03-22T02:41:25;10.70;1.00
2973;DHT22;1496;51.404;7.232;2024-03-22T02:43:51;10.80;1.00
2973;DHT22;1496;51.404;7.232;2024-03-22T02:46:16;10.80;1.00
2973;DHT22;1496;51.404;7.232;2024-03-22T02:48:42;10.60;1.00
2973;DHT22;1496;51.404;7.232;2024-03-22T02:51:07;10.50;1.00
2973;DHT22;1496;51.404;7.232;2024-03-22T02:53:33;10.50;1.00
2973;DHT22;1496;51.404;7.232;2024-03-22T02:56:02;10.40;1.00
2973;DHT22;1496;51.404;7.232;2024-03-22T02:58:27;10.40;1.00
2973;DHT22;1496;51.404;7.232;2024-03-22T03:00:53;10.40;1.00
2973;DHT22;1496;51.404;7.232;2024-03-22T03:03:19;10.50;1.00
2973;DHT22;1496;51.404;7.232;2024-03-22T03:05:45;10.50;1.00
2973;DHT22;1496;51.404;7.232;2024-03-22T03:08:10;10.50;1.00
2973;DHT22;1496;51.404;7.232;2024-03-22T03:10:36;10.60;1.00
2973;DHT22;1496;51.404;7.232;2024-03-22T03:13:02;10.60;1.00
2973;DHT22;1496;51.404;7.232;2024-03-22T03:15:29;10.60;1.00
2973;DHT22;1496;51.404;7.232;2024-03-22T03:17:56;10.70;1.00
2973;DHT22;1496;51.404;7.232;2024-03-22T03:20:22;10.70;1.00
2973;DHT22;1496;51.404;7.232;2024-03-22T03:22:48;10.70;1.00
2973;DHT22;1496;51.404;7.232;2024-03-22T03:25:14;10.80;1.00
2973;DHT22;1496;51.404;7.232;2024-03-22T03:27:40;10.70;1.00
2973;DHT22;1496;51.404;7.232;2024-03-22T03:30:06;10.80;1.00
2973;DHT22;1496;51.404;7.232;2024-03-22T03:32:32;10.80;1.00
2973;DHT22;1496;51.404;7.232;2024-03-22T03:34:57;10.80;1.00
2973;DHT22;1496;51.404;7.232;2024-03-22T03:37:23;10.80;1.00
2973;DHT22;1496;51.404;7.232;2024-03-22T03:39:49;10.70;1.00
2973;DHT22;1496;51.404;7.232;2024-03-22T03:42:15;10.70;1.00
2973;DHT22;1496;51.404;7.232;2024-03-22T03:44:40;10.80;1.00
2973;DHT22;1496;51.404;7.232;2024-03-22T03:47:07;10.80;1.00
2973;DHT22;1496;51.404;7.232;2024-03-22T03:49:33;10.80;1.00
2973;DHT22;1496;51.404;7.232;2024-03-22T03:51:58;10.80;1.00
2973;DHT22;1496;51.404;7.232;2024-03-22T03:54:24;10.70;1.00
2973;DHT22;1496;51.404;7.232;2024-03-22T03:56:51;10.70;1.00
2973;DHT22;1496;51.404;7.232;2024-03-22T03:59:17;10.70;1.00
2973;DHT22;1496;51.404;7.232;2024-03-22T04:01:43;10.70;1.00
2973;DHT22;1496;51.404;7.232;2024-03-22T04:04:08;10.70;1.00
2973;DHT22;1496;51.404;7.232;2024-03-22T04:06:34;10.60;1.00
2973;DHT22;1496;51.404;7.232;2024-03-22T04:09:00;10.40;1.00
2973;DHT22;1496;51.404;7.232;2024-03-22T04:11:26;10.40;1.00
2973;DHT22;1496;51.404;7.232;2024-03-22T04:13:51;10.30;1.00
2973;DHT22;1496;51.404;7.232;2024-03-22T04:16:17;10.20;1.00
2973;DHT22;1496;51.404;7.232;2024-03-22T04:18:43;10.20;1.00
2973;DHT22;1496;51.404;7.232;2024-03-22T04:21:09;10.30;1.00
2973;DHT22;1496;51.404;7.232;2024-03-22T04:23:34;10.30;1.00
2973;DHT22;1496;51.404;7.232;2024-03-22T04:26:01;10.40;1.00
2973;DHT22;1496;51.404;7.232;2024-03-22T04:28:28;10.50;1.00
2973;DHT22;1496;51.404;7.232;2024-03-22T04:31:04;10.60;1.00
2973;DHT22;1496;51.404;7.232;2024-03-22T04:33:31;10.60;1.00
2973;DHT22;1496;51.404;7.232;2024-03-22T04:35:58;10.70;1.00
2973;DHT22;1496;51.404;7.232;2024-03-22T04:38:25;10.60;1.00
2973;DHT22;1496;51.404;7.232;2024-03-22T04:40:51;10.70;1.00
2973;DHT22;1496;51.404;7.232;2024-03-22T04:43:17;10.70;1.00
2973;DHT22;1496;51.404;7.232;2024-03-22T04:45:44;10.70;1.00
2973;DHT22;1496;51.404;7.232;2024-03-22T04:48:12;10.70;1.00
2973;DHT22;1496;51.404;7.232;2024-03-22T04:50:37;10.70;1.00
2973;DHT22;1496;51.404;7.232;2024-03-22T04:53:03;10.70;1.00
2973;DHT22;1496;51.404;7.232;2024-03-22T04:55:29;10.80;1.00
2973;DHT22;1496;51.404;7.232;2024-03-22T04:57:54;10.80;1.00
2973;DHT22;1496;51.404;7.232;2024-03-22T05:00:21;10.80;1.00
2973;DHT22;1496;51.404;7.232;2024-03-22T05:02:46;10.80;1.00
2973;DHT22;1496;51.404;7.232;2024-03-22T05:05:13;10.80;1.00
2973;DHT22;1496;51.404;7.232;2024-03-22T05:07:39;10.80;1.00
2973;DHT22;1496;51.404;7.232;2024-03-22T05:10:04;10.80;1.00
2973;DHT22;1496;51.404;7.232;2024-03-22T05:12:31;10.70;1.00
2973;DHT22;1496;51.404;7.232;2024-03-22T05:14:57;10.60;1.00
2973;DHT22;1496;51.404;7.232;2024-03-22T05:17:23;10.60;1.00
2973;DHT22;1496;51.404;7.232;2024-03-22T05:19:48;10.60;1.00
2973;DHT22;1496;51.404;7.232;2024-03-22T05:22:15;10.70;1.00
2973;DHT22;1496;51.404;7.232;2024-03-22T05:24:41;10.60;1.00
2973;DHT22;1496;51.404;7.232;2024-03-22T05:27:06;10.60;1.00
2973;DHT22;1496;51.404;7.232;2024-03-22T05:29:32;10.60;1.00
2973;DHT22;1496;51.404;7.232;2024-03-22T05:31:57;10.50;1.00
2973;DHT22;1496;51.404;7.232;2024-03-22T05:34:23;10.70;1.00
2973;DHT22;1496;51.404;7.232;2024-03-22T05:36:49;10.80;1.00
2973;DHT22;1496;51.404;7.232;2024-03-22T05:39:15;10.80;1.00
2973;DHT22;1496;51.404;7.232;2024-03-22T05:41:40;10.80;1.00
2973;DHT22;1496;51.404;7.232;2024-03-22T05:44:07;10.70;1.00
2973;DHT22;1496;51.404;7.232;2024-03-22T05:46:33;10.80;1.00
2973;DHT22;1496;51.404;7.232;2024-03-22T05:48:59;10.90;1.00
2973;DHT22;1496;51.404;7.232;2024-03-22T05:51:25;10.90;1.00
2973;DHT22;1496;51.404;7.232;2024-03-22T05:53:51;11.00;1.00
2973;DHT22;1496;51.404;7.232;2024-03-22T05:56:17;11.00;1.00
2973;DHT22;1496;51.404;7.232;2024-03-22T05:58:43;11.00;1.00
2973;DHT22;1496;51.404;7.232;2024-03-22T06:01:08;11.00;1.00
2973;DHT22;1496;51.404;7.232;2024-03-22T06:03:34;11.00;1.00
2973;DHT22;1496;51.404;7.232;2024-03-22T06:06:00;11.00;1.00
2973;DHT22;1496;51.404;7.232;2024-03-22T06:08:29;11.00;1.00
2973;DHT22;1496;51.404;7.232;2024-03-22T06:10:57;10.90;1.00
2973;DHT22;1496;51.404;7.232;2024-03-22T06:13:23;10.80;1.00
2973;DHT22;1496;51.404;7.232;2024-03-22T06:15:49;10.90;1.00
2973;DHT22;1496;51.404;7.232;2024-03-22T06:18:15;10.80;1.00
2973;DHT22;1496;51.404;7.232;2024-03-22T06:20:40;10.90;1.00
2973;DHT22;1496;51.404;7.232;2024-03-22T06:23:07;10.90;1.00
2973;DHT22;1496;51.404;7.232;2024-03-22T06:25:33;10.90;1.00
2973;DHT22;1496;51.404;7.232;2024-03-22T06:27:59;11.00;1.00
2973;DHT22;1496;51.404;7.232;2024-03-22T06:30:24;11.00;1.00
2973;DHT22;1496;51.404;7.232;2024-03-22T06:32:50;11.10;1.00
2973;DHT22;1496;51.404;7.232;2024-03-22T06:35:15;11.20;1.00
2973;DHT22;1496;51.404;7.232;2024-03-22T06:37:41;11.30;1.00
2973;DHT22;1496;51.404;7.232;2024-03-22T06:40:10;11.40;1.00
2973;DHT22;1496;51.404;7.232;2024-03-22T06:42:36;11.40;1.00
2973;DHT22;1496;51.404;7.232;2024-03-22T06:45:02;11.40;1.00
2973;DHT22;1496;51.404;7.232;2024-03-22T06:47:28;11.40;1.00
2973;DHT22;1496;51.404;7.232;2024-03-22T06:49:54;11.40;1.00
2973;DHT22;1496;51.404;7.232;2024-03-22T06:52:20;11.50;1.00
2973;DHT22;1496;51.404;7.232;2024-03-22T06:54:46;11.50;1.00
2973;DHT22;1496;51.404;7.232;2024-03-22T06:57:12;11.50;1.00
2973;DHT22;1496;51.404;7.232;2024-03-22T06:59:38;11.60;1.00
2973;DHT22;1496;51.404;7.232;2024-03-22T07:02:04;11.60;1.00
2973;DHT22;1496;51.404;7.232;2024-03-22T07:04:29;11.60;1.00
2973;DHT22;1496;51.404;7.232;2024-03-22T07:06:55;11.60;1.00
2973;DHT22;1496;51.404;7.232;2024-03-22T07:09:21;11.60;1.00
2973;DHT22;1496;51.404;7.232;2024-03-22T07:11:46;11.60;1.00
2973;DHT22;1496;51.404;7.232;2024-03-22T07:14:12;11.60;1.00
2973;DHT22;1496;51.404;7.232;2024-03-22T07:16:38;11.60;1.00
2973;DHT22;1496;51.404;7.232;2024-03-22T07:19:04;11.70;1.00
2973;DHT22;1496;51.404;7.232;2024-03-22T07:21:31;11.70;1.00
2973;DHT22;1496;51.404;7.232;2024-03-22T07:23:57;11.70;1.00
2973;DHT22;1496;51.404;7.232;2024-03-22T07:26:23;11.70;1.00
2973;DHT22;1496;51.404;7.232;2024-03-22T07:28:49;11.70;1.00
2973;DHT22;1496;51.404;7.232;2024-03-22T07:31:14;11.60;1.00
2973;DHT22;1496;51.404;7.232;2024-03-22T07:33:40;11.60;1.00
2973;DHT22;1496;51.404;7.232;2024-03-22T07:36:06;11.70;1.00
2973;DHT22;1496;51.404;7.232;2024-03-22T07:38:32;11.80;1.00
2973;DHT22;1496;51.404;7.232;2024-03-22T07:40:58;11.90;1.00
2973;DHT22;1496;51.404;7.232;2024-03-22T07:43:24;12.10;1.00
2973;DHT22;1496;51.404;7.232;2024-03-22T07:45:50;12.20;1.00
2973;DHT22;1496;51.404;7.232;2024-03-22T07:48:15;12.20;1.00
2973;DHT22;1496;51.404;7.232;2024-03-22T07:50:41;12.40;1.00
2973;DHT22;1496;51.404;7.232;2024-03-22T07:53:07;12.50;1.00
2973;DHT22;1496;51.404;7.232;2024-03-22T07:55:34;12.50;1.00
2973;DHT22;1496;51.404;7.232;2024-03-22T07:57:59;12.40;1.00
2973;DHT22;1496;51.404;7.232;2024-03-22T08:00:25;12.30;1.00
2973;DHT22;1496;51.404;7.232;2024-03-22T08:02:51;12.20;1.00
2973;DHT22;1496;51.404;7.232;2024-03-22T08:05:17;12.30;1.00
2973;DHT22;1496;51.404;7.232;2024-03-22T08:07:43;12.20;1.00
2973;DHT22;1496;51.404;7.232;2024-03-22T08:10:09;12.20;1.00
2973;DHT22;1496;51.404;7.232;2024-03-22T08:12:35;12.30;1.00
2973;DHT22;1496;51.404;7.232;2024-03-22T08:15:01;12.20;1.00
2973;DHT22;1496;51.404;7.232;2024-03-22T08:17:28;12.30;1.00
2973;DHT22;1496;51.404;7.232;2024-03-22T08:19:54;12.30;1.00
2973;DHT22;1496;51.404;7.232;2024-03-22T08:22:19;12.30;1.00
2973;DHT22;1496;51.404;7.232;2024-03-22T08:24:45;12.40;1.00
2973;DHT22;1496;51.404;7.232;2024-03-22T08:27:11;12.40;1.00
2973;DHT22;1496;51.404;7.232;2024-03-22T08:29:37;12.60;1.00
2973;DHT22;1496;51.404;7.232;2024-03-22T08:32:03;12.70;1.00
2973;DHT22;1496;51.404;7.232;2024-03-22T08:34:30;12.80;1.00
2973;DHT22;1496;51.404;7.232;2024-03-22T08:36:58;13.00;1.00
2973;DHT22;1496;51.404;7.232;2024-03-22T08:39:23;13.10;1.00
2973;DHT22;1496;51.404;7.232;2024-03-22T08:41:50;13.10;1.00
2973;DHT22;1496;51.404;7.232;2024-03-22T08:44:16;13.10;1.00
2973;DHT22;1496;51.404;7.232;2024-03-22T08:46:42;13.00;1.00
2973;DHT22;1496;51.404;7.232;2024-03-22T08:49:07;13.10;1.00
2973;DHT22;1496;51.404;7.232;2024-03-22T08:51:34;13.00;1.00
2973;DHT22;1496;51.404;7.232;2024-03-22T08:53:59;13.00;1.00
2973;DHT22;1496;51.404;7.232;2024-03-22T08:56:26;13.10;1.00
2973;DHT22;1496;51.404;7.232;2024-03-22T08:58:52;13.00;1.00
2973;DHT22;1496;51.404;7.232;2024-03-22T09:01:17;13.10;1.00
2973;DHT22;1496;51.404;7.232;2024-03-22T09:03:43;13.10;1.00
2973;DHT22;1496;51.404;7.232;2024-03-22T09:06:12;13.00;1.00
2973;DHT22;1496;51.404;7.232;2024-03-22T09:08:37;13.10;1.00
2973;DHT22;1496;51.404;7.232;2024-03-22T09:11:04;13.20;1.00
2973;DHT22;1496;51.404;7.232;2024-03-22T09:13:30;13.20;1.00
2973;DHT22;1496;51.404;7.232;2024-03-22T09:15:59;13.30;1.00
2973;DHT22;1496;51.404;7.232;2024-03-22T09:18:25;13.30;1.00
2973;DHT22;1496;51.404;7.232;2024-03-22T09:20:52;13.20;1.00
2973;DHT22;1496;51.404;7.232;2024-03-22T09:23:18;13.20;1.00
2973;DHT22;1496;51.404;7.232;2024-03-22T09:25:44;13.20;1.00
2973;DHT22;1496;51.404;7.232;2024-03-22T09:28:10;13.00;1.00
2973;DHT22;1496;51.404;7.232;2024-03-22T09:30:40;13.00;1.00
2973;DHT22;1496;51.404;7.232;2024-03-22T09:33:08;13.00;1.00
2973;DHT22;1496;51.404;7.232;2024-03-22T09:35:35;13.00;1.00
2973;DHT22;1496;51.404;7.232;2024-03-22T09:38:01;13.10;1.00
2973;DHT22;1496;51.404;7.232;2024-03-22T09:40:28;13.10;1.00
2973;DHT22;1496;51.404;7.232;2024-03-22T09:42:53;13.20;1.00
2973;DHT22;1496;51.404;7.232;2024-03-22T09:45:20;13.20;1.00
2973;DHT22;1496;51.404;7.232;2024-03-22T09:47:48;13.40;1.00
2973;DHT22;1496;51.404;7.232;2024-03-22T09:50:15;13.80;1.00
2973;DHT22;1496;51.404;7.232;2024-03-22T09:52:41;13.60;1.00
2973;DHT22;1496;51.404;7.232;2024-03-22T09:55:08;13.70;1.00
2973;DHT22;1496;51.404;7.232;2024-03-22T09:57:37;13.80;1.00
2973;DHT22;1496;51.404;7.232;2024-03-22T10:00:08;13.80;1.00
2973;DHT22;1496;51.404;7.232;2024-03-22T10:02:40;13.70;1.00
2973;DHT22;1496;51.404;7.232;2024-03-22T10:05:08;13.80;1.00
2973;DHT22;1496;51.404;7.232;2024-03-22T10:07:33;13.90;1.00
2973;DHT22;1496;51.404;7.232;2024-03-22T10:10:00;13.90;1.00
2973;DHT22;1496;51.404;7.232;2024-03-22T10:12:25;14.00;1.00
2973;DHT22;1496;51.404;7.232;2024-03-22T10:14:54;14.00;1.00
2973;DHT22;1496;51.404;7.232;2024-03-22T10:17:20;14.10;1.00
2973;DHT22;1496;51.404;7.232;2024-03-22T10:19:48;14.00;1.00
2973;DHT22;1496;51.404;7.232;2024-03-22T10:22:15;14.00;1.00
2973;DHT22;1496;51.404;7.232;2024-03-22T10:24:42;14.00;1.00
2973;DHT22;1496;51.404;7.232;2024-03-22T10:27:08;14.10;1.00
2973;DHT22;1496;51.404;7.232;2024-03-22T10:29:35;14.00;1.00
2973;DHT22;1496;51.404;7.232;2024-03-22T10:32:02;14.00;1.00
2973;DHT22;1496;51.404;7.232;2024-03-22T10:34:28;14.00;1.00
2973;DHT22;1496;51.404;7.232;2024-03-22T10:37:00;14.10;1.00
2973;DHT22;1496;51.404;7.232;2024-03-22T10:39:26;14.20;1.00
2973;DHT22;1496;51.404;7.232;2024-03-22T10:41:52;14.20;1.00
2973;DHT22;1496;51.404;7.232;2024-03-22T10:44:18;14.10;1.00
2973;DHT22;1496;51.404;7.232;2024-03-22T10:46:48;14.00;1.00
2973;DHT22;1496;51.404;7.232;2024-03-22T10:49:18;13.80;1.00
2973;DHT22;1496;51.404;7.232;2024-03-22T10:51:52;13.70;1.00
2973;DHT22;1496;51.404;7.232;2024-03-22T10:54:27;13.60;1.00
2973;DHT22;1496;51.404;7.232;2024-03-22T10:56:54;13.60;1.00
2973;DHT22;1496;51.404;7.232;2024-03-22T10:59:22;13.60;1.00
2973;DHT22;1496;51.404;7.232;2024-03-22T11:01:49;13.70;1.00
2973;DHT22;1496;51.404;7.232;2024-03-22T11:04:19;13.50;1.00
2973;DHT22;1496;51.404;7.232;2024-03-22T11:06:49;13.60;1.00
2973;DHT22;1496;51.404;7.232;2024-03-22T11:09:22;13.80;1.00
2973;DHT22;1496;51.404;7.232;2024-03-22T11:11:48;13.90;1.00
2973;DHT22;1496;51.404;7.232;2024-03-22T11:14:17;13.90;1.00
2973;DHT22;1496;51.404;7.232;2024-03-22T11:16:44;14.00;1.00
2973;DHT22;1496;51.404;7.232;2024-03-22T11:19:10;14.10;1.00
2973;DHT22;1496;51.404;7.232;2024-03-22T11:21:36;14.10;1.00
2973;DHT22;1496;51.404;7.232;2024-03-22T11:24:02;14.30;1.00
2973;DHT22;1496;51.404;7.232;2024-03-22T11:26:27;14.10;1.00
2973;DHT22;1496;51.404;7.232;2024-03-22T11:28:53;14.00;1.00
2973;DHT22;1496;51.404;7.232;2024-03-22T11:31:19;14.00;1.00
2973;DHT22;1496;51.404;7.232;2024-03-22T11:33:53;13.90;1.00
2973;DHT22;1496;51.404;7.232;2024-03-22T11:36:19;13.90;1.00
2973;DHT22;1496;51.404;7.232;2024-03-22T11:38:44;13.90;1.00
2973;DHT22;1496;51.404;7.232;2024-03-22T11:41:11;14.10;1.00
2973;DHT22;1496;51.404;7.232;2024-03-22T11:43:37;14.00;1.00
2973;DHT22;1496;51.404;7.232;2024-03-22T11:46:03;14.30;1.00
2973;DHT22;1496;51.404;7.232;2024-03-22T11:48:29;14.30;1.00
2973;DHT22;1496;51.404;7.232;2024-03-22T11:50:56;14.40;1.00
2973;DHT22;1496;51.404;7.232;2024-03-22T11:53:22;14.40;1.00
2973;DHT22;1496;51.404;7.232;2024-03-22T11:55:49;14.50;1.00
2973;DHT22;1496;51.404;7.232;2024-03-22T11:58:15;14.50;1.00
2973;DHT22;1496;51.404;7.232;2024-03-22T12:00:44;14.40;1.00
2973;DHT22;1496;51.404;7.232;2024-03-22T12:03:09;14.20;1.00
2973;DHT22;1496;51.404;7.232;2024-03-22T12:05:36;14.10;1.00
2973;DHT22;1496;51.404;7.232;2024-03-22T12:08:02;14.10;1.00
2973;DHT22;1496;51.404;7.232;2024-03-22T12:10:28;14.10;1.00
2973;DHT22;1496;51.404;7.232;2024-03-22T12:12:53;14.00;1.00
2973;DHT22;1496;51.404;7.232;2024-03-22T12:15:20;14.10;1.00
2973;DHT22;1496;51.404;7.232;2024-03-22T12:17:45;14.00;1.00
2973;DHT22;1496;51.404;7.232;2024-03-22T12:20:11;14.00;1.00
2973;DHT22;1496;51.404;7.232;2024-03-22T12:22:37;14.00;1.00
2973;DHT22;1496;51.404;7.232;2024-03-22T12:25:04;14.10;1.00
2973;DHT22;1496;51.404;7.232;2024-03-22T12:27:31;14.10;1.00
2973;DHT22;1496;51.404;7.232;2024-03-22T12:29:56;14.00;1.00
2973;DHT22;1496;51.404;7.232;2024-03-22T12:32:22;13.90;1.00
2973;DHT22;1496;51.404;7.232;2024-03-22T12:34:47;13.80;1.00
2973;DHT22;1496;51.404;7.232;2024-03-22T12:37:14;13.70;1.00
2973;DHT22;1496;51.404;7.232;2024-03-22T12:39:39;13.60;1.00
2973;DHT22;1496;51.404;7.232;2024-03-22T12:42:05;13.60;1.00
2973;DHT22;1496;51.404;7.232;2024-03-22T12:44:31;13.30;1.00
2973;DHT22;1496;51.404;7.232;2024-03-22T12:46:57;13.20;1.00
2973;DHT22;1496;51.404;7.232;2024-03-22T12:49:23;13.10;1.00
2973;DHT22;1496;51.404;7.232;2024-03-22T12:51:49;13.10;1.00
2973;DHT22;1496;51.404;7.232;2024-03-22T12:54:15;13.10;1.00
2973;DHT22;1496;51.404;7.232;2024-03-22T12:56:45;13.10;1.00
2973;DHT22;1496;51.404;7.232;2024-03-22T12:59:11;13.10;1.00
2973;DHT22;1496;51.404;7.232;2024-03-22T13:01:37;13.10;1.00
2973;DHT22;1496;51.404;7.232;2024-03-22T13:04:04;13.00;1.00
2973;DHT22;1496;51.404;7.232;2024-03-22T13:06:30;13.10;1.00
2973;DHT22;1496;51.404;7.232;2024-03-22T13:08:56;13.30;1.00
2973;DHT22;1496;51.404;7.232;2024-03-22T13:11:24;13.30;1.00
2973;DHT22;1496;51.404;7.232;2024-03-22T13:13:49;13.20;1.00
2973;DHT22;1496;51.404;7.232;2024-03-22T13:16:15;13.20;1.00
2973;DHT22;1496;51.404;7.232;2024-03-22T13:18:42;13.10;1.00
2973;DHT22;1496;51.404;7.232;2024-03-22T13:21:08;13.00;1.00
2973;DHT22;1496;51.404;7.232;2024-03-22T13:23:33;13.00;1.00
2973;DHT22;1496;51.404;7.232;2024-03-22T13:26:04;12.90;1.00
2973;DHT22;1496;51.404;7.232;2024-03-22T13:28:30;12.80;1.00
2973;DHT22;1496;51.404;7.232;2024-03-22T13:31:02;12.70;1.00
2973;DHT22;1496;51.404;7.232;2024-03-22T13:33:31;12.60;1.00
2973;DHT22;1496;51.404;7.232;2024-03-22T13:35:57;12.60;1.00
2973;DHT22;1496;51.404;7.232;2024-03-22T13:38:24;12.70;1.00
2973;DHT22;1496;51.404;7.232;2024-03-22T13:40:56;12.60;1.00
2973;DHT22;1496;51.404;7.232;2024-03-22T13:43:23;12.50;1.00
2973;DHT22;1496;51.404;7.232;2024-03-22T13:45:53;12.40;1.00
2973;DHT22;1496;51.404;7.232;2024-03-22T13:48:20;12.30;1.00
2973;DHT22;1496;51.404;7.232;2024-03-22T13:50:53;12.30;1.00
2973;DHT22;1496;51.404;7.232;2024-03-22T13:53:20;12.30;1.00
2973;DHT22;1496;51.404;7.232;2024-03-22T13:55:51;12.20;1.00
2973;DHT22;1496;51.404;7.232;2024-03-22T13:58:18;12.20;1.00
2973;DHT22;1496;51.404;7.232;2024-03-22T14:00:44;12.00;1.00
2973;DHT22;1496;51.404;7.232;2024-03-22T14:03:09;11.90;1.00
2973;DHT22;1496;51.404;7.232;2024-03-22T14:05:35;11.90;1.00
2973;DHT22;1496;51.404;7.232;2024-03-22T14:08:01;11.90;1.00
2973;DHT22;1496;51.404;7.232;2024-03-22T14:10:29;11.90;1.00
2973;DHT22;1496;51.404;7.232;2024-03-22T14:12:57;11.90;1.00
2973;DHT22;1496;51.404;7.232;2024-03-22T14:15:23;11.80;1.00
2973;DHT22;1496;51.404;7.232;2024-03-22T14:17:53;11.90;1.00
2973;DHT22;1496;51.404;7.232;2024-03-22T14:20:18;11.90;1.00
2973;DHT22;1496;51.404;7.232;2024-03-22T14:22:44;12.10;1.00
2973;DHT22;1496;51.404;7.232;2024-03-22T14:25:10;12.10;1.00
2973;DHT22;1496;51.404;7.232;2024-03-22T14:27:38;12.10;1.00
2973;DHT22;1496;51.404;7.232;2024-03-22T14:30:06;12.10;1.00
2973;DHT22;1496;51.404;7.232;2024-03-22T14:32:36;12.10;1.00
2973;DHT22;1496;51.404;7.232;2024-03-22T14:35:01;12.00;1.00
2973;DHT22;1496;51.404;7.232;2024-03-22T14:37:27;11.90;1.00
2973;DHT22;1496;51.404;7.232;2024-03-22T14:39:53;12.00;1.00
2973;DHT22;1496;51.404;7.232;2024-03-22T14:42:19;11.90;1.00
2973;DHT22;1496;51.404;7.232;2024-03-22T14:44:47;11.90;1.00
2973;DHT22;1496;51.404;7.232;2024-03-22T14:47:13;11.90;1.00
2973;DHT22;1496;51.404;7.232;2024-03-22T14:49:38;11.90;1.00
2973;DHT22;1496;51.404;7.232;2024-03-22T14:52:06;11.70;1.00
2973;DHT22;1496;51.404;7.232;2024-03-22T14:54:32;11.60;1.00
2973;DHT22;1496;51.404;7.232;2024-03-22T14:56:58;11.40;1.00
2973;DHT22;1496;51.404;7.232;2024-03-22T14:59:27;11.20;1.00
2973;DHT22;1496;51.404;7.232;2024-03-22T15:01:53;11.10;1.00
2973;DHT22;1496;51.404;7.232;2024-03-22T15:04:19;11.10;1.00
2973;DHT22;1496;51.404;7.232;2024-03-22T15:06:45;11.00;1.00
2973;DHT22;1496;51.404;7.232;2024-03-22T15:09:13;11.00;1.00
2973;DHT22;1496;51.404;7.232;2024-03-22T15:11:39;10.90;1.00
2973;DHT22;1496;51.404;7.232;2024-03-22T15:14:06;10.80;1.00
2973;DHT22;1496;51.404;7.232;2024-03-22T15:16:33;10.60;18.30
2973;DHT22;1496;51.404;7.232;2024-03-22T15:18:59;10.60;99.90
2973;DHT22;1496;51.404;7.232;2024-03-22T15:21:25;10.50;99.90
2973;DHT22;1496;51.404;7.232;2024-03-22T15:23:51;10.30;99.90
2973;DHT22;1496;51.404;7.232;2024-03-22T15:26:16;10.30;1.00
2973;DHT22;1496;51.404;7.232;2024-03-22T15:28:42;10.30;99.90
2973;DHT22;1496;51.404;7.232;2024-03-22T15:31:08;10.40;41.00
2973;DHT22;1496;51.404;7.232;2024-03-22T15:33:34;10.30;99.90
2973;DHT22;1496;51.404;7.232;2024-03-22T15:36:00;10.30;99.90
2973;DHT22;1496;51.404;7.232;2024-03-22T15:38:26;10.30;99.90
2973;DHT22;1496;51.404;7.232;2024-03-22T15:40:51;10.20;1.00
2973;DHT22;1496;51.404;7.232;2024-03-22T15:43:17;10.10;1.00
2973;DHT22;1496;51.404;7.232;2024-03-22T15:45:43;10.20;99.90
2973;DHT22;1496;51.404;7.232;2024-03-22T15:48:09;10.30;99.90
2973;DHT22;1496;51.404;7.232;2024-03-22T15:50:35;10.30;99.90
2973;DHT22;1496;51.404;7.232;2024-03-22T15:53:01;10.30;99.90
2973;DHT22;1496;51.404;7.232;2024-03-22T15:55:27;10.30;1.00
2973;DHT22;1496;51.404;7.232;2024-03-22T15:57:56;10.30;1.00
2973;DHT22;1496;51.404;7.232;2024-03-22T16:00:22;10.40;99.90
2973;DHT22;1496;51.404;7.232;2024-03-22T16:02:48;10.40;25.60
2973;DHT22;1496;51.404;7.232;2024-03-22T16:05:17;10.50;1.00
2973;DHT22;1496;51.404;7.232;2024-03-22T16:07:44;10.40;1.00
2973;DHT22;1496;51.404;7.232;2024-03-22T16:10:10;10.40;1.00